createdAt,value
2023-04-16T00:02:06.701Z,17.5
2023-04-16T00:08:12.190Z,17.5
2023-04-16T00:14:17.332Z,17.5
2023-04-16T00:20:22.712Z,17.5
2023-04-16T00:26:28.299Z,17.5
2023-04-16T00:32:34.097Z,17.4
2023-04-16T00:38:39.664Z,17.4
2023-04-16T00:44:45.218Z,17.4
2023-04-16T00:50:50.587Z,17.4
2023-04-16T00:56:55.974Z,17.4
2023-04-16T01:03:01.518Z,17.4
2023-04-16T01:09:07.417Z,17.4
2023-04-16T01:15:13.443Z,17.3
2023-04-16T01:21:19.220Z,17.3
2023-04-16T01:27:24.799Z,17.3
2023-04-16T01:33:30.156Z,17.3
2023-04-16T01:39:35.738Z,17.3
2023-04-16T01:45:41.713Z,17.3
2023-04-16T01:51:47.280Z,17.3
2023-04-16T01:57:52.673Z,17.3
2023-04-16T02:03:58.540Z,17.2
2023-04-16T02:10:04.420Z,17.2
2023-04-16T02:16:09.593Z,17.2
2023-04-16T02:22:15.413Z,17.2
2023-04-16T02:28:20.312Z,17.2
2023-04-16T02:34:25.671Z,17.2
2023-04-16T02:40:31.050Z,17.2
2023-04-16T02:46:36.823Z,17.1
2023-04-16T02:52:42.378Z,17.2
2023-04-16T02:58:48.154Z,17.1
2023-04-16T03:04:53.377Z,17.1
2023-04-16T03:10:58.719Z,17.1
2023-04-16T03:17:04.482Z,17.1
2023-04-16T03:23:10.037Z,17.1
2023-04-16T03:29:15.608Z,17.1
2023-04-16T03:35:21.061Z,17.1
2023-04-16T03:41:26.620Z,17.1
2023-04-16T03:47:32.127Z,17.1
2023-04-16T03:53:37.560Z,17
2023-04-16T03:59:43.096Z,17
2023-04-16T04:05:48.717Z,17
2023-04-16T04:11:54.263Z,17
2023-04-16T04:17:59.886Z,17
2023-04-16T04:24:05.419Z,17
2023-04-16T04:30:10.731Z,17
2023-04-16T04:36:16.492Z,17
2023-04-16T04:42:22.067Z,16.9
2023-04-16T04:48:27.935Z,16.9
2023-04-16T04:54:33.480Z,16.9
2023-04-16T05:00:39.065Z,16.9
2023-04-16T05:06:44.628Z,16.9
2023-04-16T05:12:49.595Z,16.9
2023-04-16T05:18:55.373Z,16.9
2023-04-16T05:25:00.960Z,16.9
2023-04-16T05:31:06.343Z,16.9
2023-04-16T05:37:11.702Z,16.9
2023-04-16T05:43:17.388Z,16.9
2023-04-16T05:49:22.820Z,16.9
2023-04-16T05:55:28.405Z,17
2023-04-16T06:01:34.491Z,17.1
2023-04-16T06:07:39.965Z,17.4
2023-04-16T06:13:45.119Z,17.5
2023-04-16T06:19:50.477Z,17.5
2023-04-16T06:25:55.979Z,17.6
2023-04-16T06:32:01.544Z,17.7
2023-04-16T06:38:07.130Z,17.7
2023-04-16T06:44:12.774Z,17.7
2023-04-16T06:50:18.341Z,17.7
2023-04-16T06:56:23.907Z,17.7
2023-04-16T07:02:30.177Z,17.6
2023-04-16T07:08:35.475Z,17.7
2023-04-16T07:14:41.026Z,17.6
2023-04-16T07:20:46.753Z,17.6
2023-04-16T07:26:52.557Z,17.6
2023-04-16T07:32:58.331Z,17.6
2023-04-16T07:39:03.964Z,17.6
2023-04-16T07:45:09.462Z,17.5
2023-04-16T07:51:15.022Z,17.5
2023-04-16T07:57:20.827Z,17.5
2023-04-16T08:03:26.705Z,17.5
2023-04-16T08:09:32.639Z,17.5
2023-04-16T08:15:38.446Z,17.5
2023-04-16T08:21:43.796Z,17.6
2023-04-16T08:27:49.174Z,17.6
2023-04-16T08:33:54.919Z,17.6
2023-04-16T08:40:00.102Z,17.7
2023-04-16T08:46:05.721Z,17.8
2023-04-16T08:52:11.355Z,17.8
2023-04-16T08:58:16.738Z,17.8
2023-04-16T09:04:22.208Z,17.8
2023-04-16T09:10:28.576Z,17.9
2023-04-16T09:16:33.940Z,17.9
2023-04-16T09:22:39.720Z,17.9
2023-04-16T09:28:44.863Z,18
2023-04-16T09:34:50.029Z,18
2023-04-16T09:40:55.413Z,17.9
2023-04-16T09:47:01.175Z,18
2023-04-16T09:53:06.738Z,18
2023-04-16T09:59:12.172Z,17.9
2023-04-16T10:05:18.033Z,18
2023-04-16T10:11:22.791Z,18.1
2023-04-16T10:17:28.629Z,18
2023-04-16T10:23:34.141Z,18
2023-04-16T10:29:39.571Z,17.9
2023-04-16T10:35:44.894Z,18
2023-04-16T10:42:00.688Z,18
2023-04-16T10:48:06.307Z,18
2023-04-16T10:54:11.432Z,17.9
2023-04-16T11:00:16.838Z,17.9
2023-04-16T11:06:22.176Z,18
2023-04-16T11:12:27.559Z,18.1
2023-04-16T11:18:34.120Z,18.1
2023-04-16T11:24:45.857Z,18
2023-04-16T11:30:51.010Z,18.1
2023-04-16T11:36:56.066Z,18
2023-04-16T11:43:01.327Z,18
2023-04-16T11:49:06.361Z,18
2023-04-16T11:55:12.476Z,18
2023-04-16T12:01:18.042Z,18
2023-04-16T12:07:23.637Z,18
2023-04-16T12:13:29.039Z,18
2023-04-16T12:19:34.021Z,18
2023-04-16T12:25:38.773Z,18
2023-04-16T12:31:44.698Z,18
2023-04-16T12:37:50.460Z,18
2023-04-16T12:43:56.040Z,18
2023-04-16T12:50:01.828Z,18.1
2023-04-16T12:56:07.627Z,18.1
2023-04-16T13:02:13.019Z,18.1
2023-04-16T13:08:18.381Z,18.1
2023-04-16T13:14:23.753Z,18.1
2023-04-16T13:20:29.102Z,18.1
2023-04-16T13:26:34.709Z,18.1
2023-04-16T13:32:39.680Z,18.1
2023-04-16T13:38:44.621Z,18.1
2023-04-16T13:44:50.508Z,18.2
2023-04-16T13:50:55.889Z,18.3
2023-04-16T13:57:01.286Z,18.2
2023-04-16T14:03:07.305Z,18.2
2023-04-16T14:09:13.127Z,18.2
2023-04-16T14:15:18.870Z,18.2
2023-04-16T14:21:24.040Z,18.2
2023-04-16T14:27:29.115Z,18.2
2023-04-16T14:33:34.394Z,18.2
2023-04-16T14:39:39.321Z,18.2
2023-04-16T14:45:44.846Z,18.2
2023-04-16T14:51:50.055Z,18.2
2023-04-16T14:57:55.551Z,18.2
2023-04-16T15:04:02.137Z,18.2
2023-04-16T15:10:08.162Z,18.2
2023-04-16T15:16:13.736Z,18.2
2023-04-16T15:22:19.118Z,18.2
2023-04-16T15:28:24.442Z,18.2
2023-04-16T15:34:29.464Z,18.2
2023-04-16T15:40:34.990Z,18.2
2023-04-16T15:46:40.330Z,18.2
2023-04-16T15:52:46.329Z,18.2
2023-04-16T15:58:51.546Z,18.2
2023-04-16T16:04:57.099Z,18.2
2023-04-16T16:11:02.305Z,18.2
2023-04-16T16:17:08.011Z,18.2
2023-04-16T16:23:13.232Z,18.2
2023-04-16T16:29:18.186Z,18.2
2023-04-16T16:35:23.690Z,18.2
2023-04-16T16:41:29.060Z,18.2
2023-04-16T16:47:34.470Z,18.2
2023-04-16T16:53:39.445Z,18.2
2023-04-16T16:59:44.556Z,18.2
2023-04-16T17:05:50.333Z,18.2
2023-04-16T17:11:55.738Z,18.2
2023-04-16T17:18:00.773Z,18.2
2023-04-16T17:24:05.884Z,18.2
2023-04-16T17:30:11.183Z,18.1
2023-04-16T17:36:16.975Z,18.1
2023-04-16T17:42:22.346Z,18.1
2023-04-16T17:48:27.717Z,18.1
2023-04-16T17:54:33.286Z,18.1
2023-04-16T18:00:38.661Z,18.1
2023-04-16T18:06:44.020Z,18.1
2023-04-16T18:12:49.376Z,18.1
2023-04-16T18:18:54.747Z,18.1
2023-04-16T18:24:59.970Z,18.1
2023-04-16T18:31:06.313Z,18.1
2023-04-16T18:37:11.875Z,18.1
2023-04-16T18:43:17.463Z,18
2023-04-16T18:49:23.420Z,18.1
2023-04-16T18:55:28.579Z,18.1
2023-04-16T19:01:34.164Z,18
2023-04-16T19:07:39.341Z,18
2023-04-16T19:13:44.750Z,18
2023-04-16T19:19:50.316Z,18
2023-04-16T19:25:55.714Z,18
2023-04-16T19:32:01.717Z,18
2023-04-16T19:38:08.414Z,18
2023-04-16T19:44:15.441Z,18
2023-04-16T19:50:21.191Z,18
2023-04-16T19:56:26.392Z,18
2023-04-16T20:02:32.195Z,18
2023-04-16T20:08:37.720Z,18
2023-04-16T20:14:43.525Z,18
2023-04-16T20:20:48.513Z,18
2023-04-16T20:26:54.106Z,18
2023-04-16T20:32:59.509Z,18
2023-04-16T20:39:05.012Z,18
2023-04-16T20:45:11.008Z,18
2023-04-16T20:51:16.585Z,18
2023-04-16T20:57:22.139Z,18
2023-04-16T21:03:27.769Z,18
2023-04-16T21:09:33.688Z,18
2023-04-16T21:15:39.223Z,18
2023-04-16T21:21:44.987Z,18
2023-04-16T21:27:50.573Z,18
2023-04-16T21:33:56.572Z,18
2023-04-16T21:40:02.608Z,17.9
2023-04-16T21:46:07.953Z,17.9
2023-04-16T21:52:12.946Z,17.9
2023-04-16T21:58:18.267Z,17.9
2023-04-16T22:04:23.811Z,17.9
2023-04-16T22:10:29.369Z,17.9
2023-04-16T22:16:34.952Z,17.9
2023-04-16T22:22:40.577Z,17.8
2023-04-16T22:28:45.941Z,17.8
2023-04-16T22:34:51.307Z,17.8
2023-04-16T22:40:56.875Z,17.8
2023-04-16T22:47:02.450Z,17.8
2023-04-16T22:53:07.763Z,17.8
2023-04-16T22:59:13.752Z,17.8
2023-04-16T23:05:19.583Z,17.8
2023-04-16T23:11:24.562Z,17.7
2023-04-16T23:17:30.149Z,17.7
2023-04-16T23:23:35.696Z,17.7
2023-04-16T23:29:41.271Z,17.7
2023-04-16T23:35:46.841Z,17.7
2023-04-16T23:41:52.201Z,17.7
2023-04-16T23:47:57.624Z,17.6
2023-04-16T23:54:03.343Z,17.6
